Time;durP1;ratioP1;P1;durP2;ratioP2;P2;SDS_P1;SDS_P2;PMS_P1;PMS_P2;Temp;Humidity;BMP_temperature;BMP_pressure;BME280_temperature;BME280_humidity;BME280_pressure;Samples;Min_cycle;Max_cycle;Signal;HPM_P1;HPM_P2
2023/11/30 00:01:18;;;;;;;16.15;13.00;;;;;;;3.26;71.01;94362.72;4193145;28;20052;-69
2023/11/30 00:03:19;;;;;;;16.75;13.60;;;;;;;3.24;71.14;94369.78;4199173;28;20074;-70
2023/11/30 00:05:21;;;;;;;16.08;13.40;;;;;;;3.27;70.70;94376.50;4196034;28;20462;-68
2023/11/30 00:07:24;;;;;;;16.33;14.18;;;;;;;3.30;70.92;94375.44;4190760;28;20069;-68
2023/11/30 00:09:26;;;;;;;15.93;14.02;;;;;;;3.22;70.80;94368.25;4187499;28;20051;-68
2023/11/30 00:11:28;;;;;;;17.05;14.10;;;;;;;3.20;71.04;94380.50;4194394;28;20065;-69
2023/11/30 00:13:30;;;;;;;16.75;13.52;;;;;;;3.13;70.60;94380.16;4189663;28;21101;-69
2023/11/30 00:15:32;;;;;;;19.88;14.55;;;;;;;3.03;70.97;94393.03;4195221;28;20052;-69
2023/11/30 00:17:33;;;;;;;18.83;14.60;;;;;;;2.89;71.46;94392.47;4175905;28;20053;-70
2023/11/30 00:19:35;;;;;;;19.05;14.77;;;;;;;2.86;71.93;94391.75;4195042;28;20537;-68
2023/11/30 00:21:37;;;;;;;17.90;14.25;;;;;;;2.92;71.95;94392.22;4188105;28;20087;-67
2023/11/30 00:23:39;;;;;;;17.25;15.02;;;;;;;2.86;71.49;94398.69;4191815;28;20113;-70
2023/11/30 00:25:41;;;;;;;18.85;14.75;;;;;;;2.82;71.41;94405.88;4184627;28;20094;-67
2023/11/30 00:27:43;;;;;;;18.92;14.77;;;;;;;2.81;71.57;94405.97;4193610;28;20048;-67
2023/11/30 00:29:45;;;;;;;17.20;14.93;;;;;;;2.80;71.40;94401.75;4191313;28;20127;-69
2023/11/30 00:31:46;;;;;;;20.08;16.65;;;;;;;2.78;71.46;94404.47;4190551;28;20073;-69
2023/11/30 00:33:48;;;;;;;20.00;16.70;;;;;;;2.67;72.44;94410.47;4182905;28;20457;-70
2023/11/30 00:35:50;;;;;;;19.92;15.88;;;;;;;2.68;72.26;94419.03;4195006;28;20082;-70
2023/11/30 00:37:52;;;;;;;21.25;17.25;;;;;;;2.69;72.52;94415.53;4174253;28;20836;-68
2023/11/30 00:39:53;;;;;;;19.40;15.68;;;;;;;2.64;71.87;94415.03;4191520;28;20127;-69
2023/11/30 00:41:55;;;;;;;20.30;15.90;;;;;;;2.68;72.41;94419.03;4190448;28;20068;-70
2023/11/30 00:43:57;;;;;;;19.25;16.48;;;;;;;2.76;72.36;94416.69;4191785;28;20052;-69
2023/11/30 00:45:59;;;;;;;20.50;17.52;;;;;;;2.77;71.99;94425.25;4189297;28;20057;-68
2023/11/30 00:48:10;;;;;;;19.35;17.25;;;;;;;2.63;71.75;94424.56;4179124;28;20055;-69
2023/11/30 00:50:12;;;;;;;21.73;18.05;;;;;;;2.53;72.17;94433.97;4179791;28;20049;-69
2023/11/30 00:52:13;;;;;;;23.15;17.98;;;;;;;2.39;72.42;94435.03;4179735;28;20052;-69
2023/11/30 00:54:15;;;;;;;23.90;17.83;;;;;;;2.22;72.56;94431.13;4192279;28;20051;-72
2023/11/30 00:56:17;;;;;;;21.77;17.80;;;;;;;2.04;73.36;94433.31;4193481;28;20330;-71
2023/11/30 00:58:18;;;;;;;21.70;18.05;;;;;;;2.09;74.11;94445.06;4175612;28;20049;-68
2023/11/30 01:00:20;;;;;;;21.30;16.70;;;;;;;2.21;74.22;94439.78;4170390;28;20127;-69
2023/11/30 01:02:22;;;;;;;24.00;18.13;;;;;;;2.12;73.52;94437.91;4197781;28;20106;-68
2023/11/30 01:04:24;;;;;;;21.50;18.27;;;;;;;2.01;74.09;94435.31;4201138;28;20047;-71
2023/11/30 01:06:26;;;;;;;23.05;18.67;;;;;;;2.12;74.16;94434.50;4197880;28;20045;-70
2023/11/30 01:08:27;;;;;;;24.23;19.20;;;;;;;2.20;74.03;94433.00;4196458;28;20061;-69
2023/11/30 01:10:29;;;;;;;21.85;17.10;;;;;;;2.34;73.54;94431.13;4197576;28;20483;-71
2023/11/30 01:12:33;;;;;;;21.65;16.45;;;;;;;2.35;72.60;94431.03;4189018;28;20177;-70
2023/11/30 01:14:35;;;;;;;17.97;14.93;;;;;;;2.14;72.17;94424.88;4191677;28;20090;-70
2023/11/30 01:16:37;;;;;;;17.67;15.05;;;;;;;2.02;73.40;94431.78;4195496;28;20281;-69
2023/11/30 01:18:38;;;;;;;17.77;14.50;;;;;;;1.81;73.04;94431.63;4179320;28;20049;-70
2023/11/30 01:20:40;;;;;;;18.80;14.90;;;;;;;1.47;73.96;94439.22;4194965;28;20476;-68
2023/11/30 01:22:42;;;;;;;17.83;14.90;;;;;;;1.33;74.58;94441.97;4196689;28;20048;-68
2023/11/30 01:24:44;;;;;;;20.45;15.80;;;;;;;1.42;74.91;94442.13;4187108;28;20072;-69
2023/11/30 01:26:46;;;;;;;22.40;17.83;;;;;;;1.34;74.85;94441.84;4196442;28;20052;-70
2023/11/30 01:28:48;;;;;;;23.10;18.05;;;;;;;1.39;74.92;94444.91;4179522;28;20053;-69
2023/11/30 01:30:50;;;;;;;21.58;17.35;;;;;;;1.43;75.57;94437.78;4188380;28;20044;-71
2023/11/30 01:32:52;;;;;;;20.63;17.08;;;;;;;1.59;75.54;94440.94;4176548;28;20044;-68
2023/11/30 01:34:53;;;;;;;24.50;18.92;;;;;;;1.79;74.80;94438.66;4184014;28;20044;-70
2023/11/30 01:36:55;;;;;;;18.98;15.05;;;;;;;1.80;73.65;94438.53;4190445;28;20052;-69
2023/11/30 01:38:57;;;;;;;19.77;15.82;;;;;;;1.83;73.46;94434.91;4194555;28;20055;-68
2023/11/30 01:40:59;;;;;;;20.15;16.42;;;;;;;1.81;73.54;94444.53;4195839;28;20123;-71
2023/11/30 01:43:00;;;;;;;19.17;16.40;;;;;;;1.90;73.75;94443.84;4195638;28;20040;-70
2023/11/30 01:45:03;;;;;;;19.30;15.35;;;;;;;1.99;73.68;94438.00;4190410;28;20414;-68
2023/11/30 01:47:06;;;;;;;19.83;15.70;;;;;;;2.12;73.23;94440.50;4175947;28;20049;-69
2023/11/30 01:49:07;;;;;;;17.35;14.68;;;;;;;2.22;73.00;94443.22;4195521;28;20048;-69
2023/11/30 01:51:09;;;;;;;23.30;15.43;;;;;;;2.27;72.67;94432.53;4196940;28;20530;-67
2023/11/30 01:53:12;;;;;;;38.13;29.02;;;;;;;2.37;73.39;94436.91;4178094;28;20053;-67
2023/11/30 01:55:14;;;;;;;31.60;23.65;;;;;;;2.44;72.81;94438.06;4174944;28;20049;-69
2023/11/30 01:57:16;;;;;;;21.52;17.48;;;;;;;2.51;72.29;94435.84;4193279;28;20040;-69
2023/11/30 01:59:18;;;;;;;18.77;15.50;;;;;;;2.56;71.65;94438.06;4191894;28;20109;-69
2023/11/30 02:01:20;;;;;;;18.20;15.18;;;;;;;2.56;71.74;94441.50;4176055;28;20450;-69
2023/11/30 02:03:22;;;;;;;18.38;16.00;;;;;;;2.56;71.67;94444.09;4174564;28;20568;-69
2023/11/30 02:05:26;;;;;;;16.17;14.45;;;;;;;2.57;71.66;94444.91;4183577;28;20081;-71
2023/11/30 02:07:28;;;;;;;19.33;15.00;;;;;;;2.52;71.09;94450.44;4196439;28;20415;-68
2023/11/30 02:09:30;;;;;;;16.58;13.88;;;;;;;2.48;71.49;94448.19;4192292;28;20053;-70
2023/11/30 02:11:32;;;;;;;18.52;14.85;;;;;;;2.40;71.67;94454.75;4186479;28;20055;-70
2023/11/30 02:13:34;;;;;;;17.98;15.05;;;;;;;2.32;71.98;94458.84;4171893;28;20589;-71
2023/11/30 02:15:35;;;;;;;16.20;14.43;;;;;;;2.28;72.41;94462.59;4192754;28;20052;-68
2023/11/30 02:17:37;;;;;;;15.77;14.07;;;;;;;2.25;71.90;94459.31;4189885;28;20086;-69
2023/11/30 02:19:39;;;;;;;16.25;13.50;;;;;;;2.30;72.04;94464.13;4175326;28;20056;-68
2023/11/30 02:21:59;;;;;;;16.15;14.27;;;;;;;2.19;72.04;94469.28;4187366;28;20438;-68
2023/11/30 02:24:02;;;;;;;15.90;13.40;;;;;;;2.21;72.38;94465.63;4193515;28;20131;-68
2023/11/30 02:26:04;;;;;;;18.25;14.40;;;;;;;2.21;72.25;94473.41;4166365;28;20048;-68
2023/11/30 02:28:05;;;;;;;17.98;14.00;;;;;;;2.19;72.29;94475.28;4177883;28;20049;-70
2023/11/30 02:30:08;;;;;;;16.45;13.45;;;;;;;2.19;72.46;94469.28;4192256;28;20383;-69
2023/11/30 02:32:10;;;;;;;14.93;13.32;;;;;;;2.20;72.37;94476.13;4193888;28;20053;-69
2023/11/30 02:34:12;;;;;;;15.20;13.45;;;;;;;2.10;71.93;94468.22;4191802;28;20355;-68
2023/11/30 02:36:14;;;;;;;15.73;13.70;;;;;;;1.91;72.48;94481.66;4194968;28;20067;-69
2023/11/30 02:38:15;;;;;;;16.05;13.65;;;;;;;1.84;72.96;94478.69;4190061;28;20135;-67
2023/11/30 02:40:17;;;;;;;15.27;13.43;;;;;;;1.91;73.38;94481.66;4162257;28;20435;-68
2023/11/30 02:42:20;;;;;;;16.33;14.38;;;;;;;1.96;73.13;94489.91;4175632;28;20499;-68
2023/11/30 02:44:21;;;;;;;17.33;14.52;;;;;;;2.00;73.06;94485.31;4183411;28;20056;-68
2023/11/30 02:46:23;;;;;;;16.17;14.45;;;;;;;2.05;72.83;94485.81;4181830;28;20052;-67
2023/11/30 02:48:25;;;;;;;17.35;14.15;;;;;;;2.12;72.97;94487.00;4180469;28;20053;-67
2023/11/30 02:50:27;;;;;;;14.77;13.10;;;;;;;2.22;72.51;94489.75;4185318;28;20041;-69
2023/11/30 02:52:29;;;;;;;16.60;14.23;;;;;;;2.28;72.19;94488.44;4174645;28;20456;-68
2023/11/30 02:54:30;;;;;;;15.50;13.65;;;;;;;2.34;72.10;94482.84;4193958;28;20075;-68
2023/11/30 02:56:40;;;;;;;15.52;13.50;;;;;;;2.37;71.78;94478.25;4176425;28;20189;-68
2023/11/30 02:58:42;;;;;;;16.42;13.88;;;;;;;2.42;71.99;94483.91;4161662;28;20368;-69
2023/11/30 03:00:46;;;;;;;16.42;13.70;;;;;;;2.43;71.68;94488.16;4177471;28;20080;-69
2023/11/30 03:02:47;;;;;;;15.52;13.70;;;;;;;2.43;71.75;94493.31;4190346;28;20054;-69
2023/11/30 03:04:49;;;;;;;15.20;12.68;;;;;;;2.45;71.67;94486.28;4186814;28;20135;-69
2023/11/30 03:06:51;;;;;;;16.92;13.85;;;;;;;2.43;71.79;94485.56;4189900;28;20051;-70
2023/11/30 03:08:53;;;;;;;16.38;13.75;;;;;;;2.43;71.63;94487.31;4192690;28;20552;-70
2023/11/30 03:10:54;;;;;;;16.80;14.07;;;;;;;2.41;71.45;94479.69;4194851;28;20079;-68
2023/11/30 03:12:56;;;;;;;15.13;12.98;;;;;;;2.36;72.50;94493.88;4170289;28;20107;-68
2023/11/30 03:14:58;;;;;;;16.73;14.60;;;;;;;2.40;72.21;94490.94;4187233;28;20053;-69
2023/11/30 03:17:00;;;;;;;15.23;13.40;;;;;;;2.35;72.29;94490.47;4192358;28;20110;-69
2023/11/30 03:19:01;;;;;;;21.02;14.85;;;;;;;2.37;72.25;94498.94;4193563;28;20044;-68
2023/11/30 03:21:18;;;;;;;18.98;15.68;;;;;;;2.35;72.19;94494.84;4195100;28;20045;-68
2023/11/30 03:23:20;;;;;;;19.95;16.10;;;;;;;2.31;72.40;94499.41;4192560;28;20106;-68
2023/11/30 03:25:22;;;;;;;20.30;16.73;;;;;;;2.30;72.46;94500.31;4189940;28;20628;-69
2023/11/30 03:27:23;;;;;;;18.60;16.13;;;;;;;2.32;72.65;94505.38;4183810;28;20144;-69
2023/11/30 03:29:25;;;;;;;18.65;16.25;;;;;;;2.36;72.66;94507.63;4171128;28;20053;-68
2023/11/30 03:31:27;;;;;;;18.38;15.85;;;;;;;2.41;72.39;94507.28;4190746;28;20045;-69
2023/11/30 03:33:29;;;;;;;21.80;17.05;;;;;;;2.39;72.45;94509.19;4194284;28;20052;-70
2023/11/30 03:35:31;;;;;;;18.90;16.25;;;;;;;2.41;72.67;94522.78;4195030;28;20045;-68
2023/11/30 03:37:32;;;;;;;19.33;16.67;;;;;;;2.39;72.55;94522.09;4177488;28;20045;-69
2023/11/30 03:39:34;;;;;;;20.77;17.48;;;;;;;2.39;72.85;94522.94;4176736;28;20508;-68
2023/11/30 03:41:36;;;;;;;19.77;16.25;;;;;;;2.37;72.55;94527.38;4175608;28;20053;-69
2023/11/30 03:43:37;;;;;;;20.88;16.98;;;;;;;2.36;72.55;94525.72;4184789;28;20044;-69
2023/11/30 03:45:39;;;;;;;19.73;16.35;;;;;;;2.41;72.63;94531.41;4182939;28;20128;-68
2023/11/30 03:47:41;;;;;;;17.92;15.68;;;;;;;2.42;72.51;94533.03;4193869;28;20075;-67
2023/11/30 03:49:43;;;;;;;19.60;15.90;;;;;;;2.37;72.66;94536.91;4176630;28;20132;-67
2023/11/30 03:51:45;;;;;;;20.05;16.67;;;;;;;2.34;72.89;94535.34;4177361;28;20494;-67
2023/11/30 03:53:47;;;;;;;21.52;16.95;;;;;;;2.40;72.87;94534.09;4193728;28;20052;-68
2023/11/30 03:55:48;;;;;;;19.60;15.52;;;;;;;2.40;72.40;94540.06;4181932;28;20096;-69
2023/11/30 03:57:50;;;;;;;19.98;16.58;;;;;;;2.39;72.65;94530.69;4194629;28;20084;-68
2023/11/30 03:59:52;;;;;;;18.38;16.33;;;;;;;2.44;72.73;94530.34;4189786;28;20048;-68
2023/11/30 04:01:54;;;;;;;18.08;15.80;;;;;;;2.44;72.56;94527.75;4192914;28;20084;-69
2023/11/30 04:03:56;;;;;;;17.67;15.15;;;;;;;2.44;72.43;94528.56;4192682;28;20409;-68
2023/11/30 04:05:58;;;;;;;17.40;15.15;;;;;;;2.36;72.26;94528.31;4161101;28;20054;-68
2023/11/30 04:08:00;;;;;;;18.25;15.60;;;;;;;2.36;72.66;94530.88;4185223;28;20052;-70
2023/11/30 04:10:03;;;;;;;18.10;15.93;;;;;;;2.33;72.61;94525.97;4182638;28;20049;-70
2023/11/30 04:12:04;;;;;;;18.95;15.73;;;;;;;2.37;72.72;94534.31;4180383;28;20041;-68
2023/11/30 04:14:07;;;;;;;18.95;15.15;;;;;;;2.37;72.65;94531.75;4187913;28;20094;-70
2023/11/30 04:16:09;;;;;;;15.48;13.77;;;;;;;2.34;72.39;94524.19;4192424;28;20054;-69
2023/11/30 04:18:11;;;;;;;18.38;15.23;;;;;;;2.33;72.25;94525.97;4176411;28;20049;-68
2023/11/30 04:20:13;;;;;;;17.65;15.20;;;;;;;2.33;72.88;94523.38;4177159;28;20049;-68
2023/11/30 04:22:15;;;;;;;16.45;14.75;;;;;;;2.31;72.54;94520.06;4194253;28;20123;-68
2023/11/30 04:24:17;;;;;;;16.90;13.98;;;;;;;2.30;72.49;94515.81;4184386;28;20049;-70
2023/11/30 04:26:19;;;;;;;18.67;14.77;;;;;;;2.30;72.87;94518.41;4193366;28;20361;-69
2023/11/30 04:28:21;;;;;;;17.52;15.57;;;;;;;2.21;72.39;94519.09;4186986;28;20045;-67
2023/11/30 04:30:23;;;;;;;19.00;14.30;;;;;;;2.20;72.89;94520.06;4190875;28;20045;-70
2023/11/30 04:32:25;;;;;;;17.48;14.63;;;;;;;2.21;72.97;94519.09;4173898;28;20503;-69
2023/11/30 04:34:27;;;;;;;16.73;14.85;;;;;;;2.16;73.11;94521.22;4197628;28;20052;-68
2023/11/30 04:36:28;;;;;;;18.30;15.15;;;;;;;2.21;73.10;94519.09;4190829;28;20049;-68
2023/11/30 04:38:30;;;;;;;17.83;14.90;;;;;;;2.23;72.67;94520.63;4187698;28;20049;-70
2023/11/30 04:40:32;;;;;;;17.48;15.05;;;;;;;2.22;72.49;94521.59;4192891;28;20052;-68
2023/11/30 04:42:34;;;;;;;16.98;13.70;;;;;;;2.17;72.71;94525.44;4194086;28;20066;-71
2023/11/30 04:44:36;;;;;;;16.42;14.23;;;;;;;2.14;73.41;94521.31;4196691;28;20523;-70
2023/11/30 04:46:37;;;;;;;16.35;14.45;;;;;;;2.15;73.58;94522.13;4186797;28;20053;-69
2023/11/30 04:48:39;;;;;;;16.13;14.43;;;;;;;2.17;73.54;94534.03;4186089;28;20528;-69
2023/11/30 04:50:43;;;;;;;17.15;13.95;;;;;;;1.95;73.12;94537.31;4196686;28;20048;-71
2023/11/30 04:52:44;;;;;;;16.25;14.55;;;;;;;1.67;74.13;94546.22;4179993;28;20049;-70
2023/11/30 04:54:46;;;;;;;16.80;14.88;;;;;;;1.55;75.01;94542.78;4196082;28;20127;-72
2023/11/30 04:56:48;;;;;;;16.67;14.02;;;;;;;1.62;75.91;94549.13;4193064;28;20054;-70
2023/11/30 04:58:49;;;;;;;15.75;13.95;;;;;;;1.74;75.66;94556.94;4196024;28;20159;-69
2023/11/30 05:00:51;;;;;;;16.73;14.88;;;;;;;1.77;74.85;94560.16;4195374;28;20052;-70
2023/11/30 05:02:55;;;;;;;17.13;15.32;;;;;;;1.81;74.84;94573.69;4179975;28;20076;-69
2023/11/30 05:04:57;;;;;;;23.33;18.02;;;;;;;1.81;74.57;94571.91;4192856;28;20048;-69
2023/11/30 05:06:59;;;;;;;22.90;17.67;;;;;;;1.78;74.37;94579.84;4197995;28;20797;-70
2023/11/30 05:09:02;;;;;;;17.83;15.68;;;;;;;1.79;74.49;94584.09;4198342;28;20052;-72
2023/11/30 05:11:04;;;;;;;17.27;15.10;;;;;;;1.79;74.36;94588.44;4196233;28;20124;-72
2023/11/30 05:13:06;;;;;;;17.90;15.82;;;;;;;1.34;74.92;94588.16;4196374;28;20053;-71
2023/11/30 05:15:08;;;;;;;19.13;15.68;;;;;;;0.86;76.88;94595.69;4196381;28;20055;-72
2023/11/30 05:17:10;;;;;;;20.98;16.08;;;;;;;1.07;78.42;94596.03;4196791;28;20621;-70
2023/11/30 05:19:12;;;;;;;24.50;20.77;;;;;;;0.53;78.17;94604.75;4198090;28;20489;-73
2023/11/30 05:21:14;;;;;;;35.53;27.63;;;;;;;0.25;79.35;94618.63;4175090;28;20096;-71
2023/11/30 05:23:16;;;;;;;31.65;25.35;;;;;;;-0.03;80.90;94623.75;4170902;28;20159;-71
2023/11/30 05:25:18;;;;;;;33.80;27.60;;;;;;;0.14;81.47;94616.72;4189560;28;20053;-70
2023/11/30 05:27:20;;;;;;;33.45;25.67;;;;;;;0.44;81.63;94610.53;4193688;28;20052;-69
2023/11/30 05:29:22;;;;;;;30.67;24.70;;;;;;;0.72;80.96;94609.53;4197187;28;20068;-69
2023/11/30 05:31:24;;;;;;;29.45;21.80;;;;;;;1.01;79.91;94615.31;4197310;28;20060;-69
2023/11/30 05:33:27;;;;;;;29.48;22.63;;;;;;;1.20;78.63;94605.38;4191905;28;20053;-70
2023/11/30 05:35:30;;;;;;;27.13;22.77;;;;;;;1.42;77.91;94611.69;4197965;28;20070;-70
2023/11/30 05:37:32;;;;;;;28.98;23.10;;;;;;;1.57;77.00;94613.19;4195608;28;20045;-70
2023/11/30 05:39:36;;;;;;;29.33;23.65;;;;;;;1.67;76.65;94628.03;4188038;28;20443;-69
2023/11/30 05:41:38;;;;;;;28.45;22.33;;;;;;;1.77;75.74;94621.31;4196407;28;20052;-72
2023/11/30 05:43:40;;;;;;;28.50;23.95;;;;;;;1.84;75.36;94617.34;4188120;28;20419;-71
2023/11/30 05:45:44;;;;;;;28.08;22.40;;;;;;;1.91;75.29;94617.75;4186286;28;20061;-70
2023/11/30 05:47:45;;;;;;;27.80;22.48;;;;;;;1.95;74.87;94612.25;4175762;28;20488;-71
2023/11/30 05:49:47;;;;;;;26.75;21.90;;;;;;;1.95;74.00;94608.84;4190694;28;20084;-72
2023/11/30 05:51:49;;;;;;;31.67;24.73;;;;;;;2.01;74.21;94622.16;4190832;28;20052;-71
2023/11/30 05:53:50;;;;;;;28.77;23.02;;;;;;;1.90;74.37;94624.69;4195711;28;20049;-72
2023/11/30 05:55:52;;;;;;;29.77;24.52;;;;;;;1.64;74.46;94635.06;4184770;28;20053;-71
2023/11/30 05:57:55;;;;;;;29.98;23.23;;;;;;;1.28;75.52;94635.03;4170787;28;20056;-73
2023/11/30 05:59:57;;;;;;;43.42;32.75;;;;;;;0.92;77.89;94621.09;4189009;28;20453;-72
2023/11/30 06:02:01;;;;;;;41.22;33.08;;;;;;;1.07;78.56;94629.56;4186175;28;20151;-73
2023/11/30 06:04:04;;;;;;;34.00;26.25;;;;;;;1.04;77.88;94624.63;4167590;28;20129;-73
2023/11/30 06:06:09;;;;;;;30.98;25.95;;;;;;;1.18;78.24;94615.00;4161781;28;20050;-71
2023/11/30 06:08:11;;;;;;;34.22;26.10;;;;;;;1.38;77.69;94623.16;4196810;28;20135;-71
2023/11/30 06:10:15;;;;;;;37.60;31.73;;;;;;;1.58;77.71;94617.41;4191703;28;20083;-72
2023/11/30 06:12:19;;;;;;;42.28;30.38;;;;;;;1.64;76.62;94619.56;4173652;28;20053;-72
2023/11/30 06:14:22;;;;;;;43.22;33.15;;;;;;;1.58;76.04;94622.59;4179235;28;20041;-71
2023/11/30 06:16:24;;;;;;;30.85;25.00;;;;;;;1.55;76.26;94620.22;4174662;28;20131;-70
2023/11/30 06:18:26;;;;;;;29.00;23.50;;;;;;;1.59;76.32;94629.41;4185230;28;20055;-69
2023/11/30 06:20:28;;;;;;;26.10;22.77;;;;;;;1.72;76.22;94631.13;4163668;28;20042;-70
2023/11/30 06:22:29;;;;;;;26.88;21.23;;;;;;;1.79;75.86;94627.19;4189709;28;20170;-70
2023/11/30 06:24:31;;;;;;;30.58;25.67;;;;;;;1.82;75.70;94630.38;4195062;28;20091;-71
2023/11/30 06:26:33;;;;;;;30.33;24.98;;;;;;;1.79;75.29;94638.34;4195799;28;20098;-70
2023/11/30 06:28:35;;;;;;;30.92;24.38;;;;;;;1.60;75.62;94643.97;4194239;28;20048;-70
2023/11/30 06:30:36;;;;;;;26.27;23.23;;;;;;;1.46;75.45;94638.91;4187003;28;20060;-71
2023/11/30 06:32:38;;;;;;;28.13;24.02;;;;;;;1.40;76.17;94629.84;4171087;28;20049;-72
2023/11/30 06:34:40;;;;;;;28.60;24.27;;;;;;;1.41;76.52;94634.06;4191800;28;20052;-70
2023/11/30 06:36:42;;;;;;;28.55;24.50;;;;;;;1.30;76.44;94633.97;4183789;28;20056;-70
2023/11/30 06:38:44;;;;;;;28.27;23.45;;;;;;;1.36;76.79;94645.66;4187963;28;20056;-70
2023/11/30 06:40:47;;;;;;;28.42;23.38;;;;;;;1.46;76.66;94654.41;4191290;28;20190;-72
2023/11/30 06:42:48;;;;;;;27.98;23.00;;;;;;;1.48;76.22;94649.16;4178728;28;20049;-71
2023/11/30 06:44:50;;;;;;;31.13;24.83;;;;;;;1.50;76.46;94647.28;4194724;28;20455;-72
2023/11/30 06:46:52;;;;;;;29.33;24.63;;;;;;;1.46;76.13;94651.00;4186389;28;20092;-72
2023/11/30 06:48:54;;;;;;;32.75;27.80;;;;;;;1.53;76.21;94660.00;4194980;28;20052;-71
2023/11/30 06:50:56;;;;;;;38.55;29.33;;;;;;;1.46;76.41;94656.97;4185355;28;20048;-72
2023/11/30 06:52:58;;;;;;;39.25;30.13;;;;;;;1.27;76.94;94656.59;4188047;28;20049;-71
2023/11/30 06:54:59;;;;;;;35.67;29.17;;;;;;;1.32;76.96;94667.44;4192329;28;20084;-72
2023/11/30 06:57:01;;;;;;;36.85;30.10;;;;;;;1.53;77.43;94665.97;4194510;28;20052;-73
2023/11/30 06:59:03;;;;;;;46.50;36.85;;;;;;;1.74;77.45;94673.16;4179492;28;20094;-71
2023/11/30 07:01:09;;;;;;;39.08;30.75;;;;;;;1.93;75.97;94670.94;4178118;28;20045;-71
2023/11/30 07:03:12;;;;;;;35.05;28.33;;;;;;;2.04;75.48;94672.78;4193409;28;20052;-73
2023/11/30 07:05:14;;;;;;;38.13;28.77;;;;;;;2.11;74.95;94683.50;4195133;28;20137;-71
2023/11/30 07:07:16;;;;;;;45.28;32.17;;;;;;;2.25;75.01;94673.03;4194569;28;20063;-72
2023/11/30 07:09:34;;;;;;;39.30;31.98;;;;;;;2.37;74.08;94674.75;4180959;28;20087;-71
2023/11/30 07:11:36;;;;;;;38.55;31.67;;;;;;;2.42;73.56;94667.47;4175306;28;20119;-72
2023/11/30 07:13:38;;;;;;;37.78;32.08;;;;;;;2.49;73.02;94667.84;4178174;28;20049;-70
2023/11/30 07:15:40;;;;;;;34.97;31.17;;;;;;;2.57;72.83;94667.31;4188128;28;20079;-70
2023/11/30 07:17:42;;;;;;;35.10;28.02;;;;;;;2.60;72.52;94667.94;4177298;28;20400;-70
2023/11/30 07:19:44;;;;;;;35.28;30.55;;;;;;;2.69;71.87;94661.25;4195177;28;20052;-69
2023/11/30 07:21:49;;;;;;;35.17;31.02;;;;;;;2.75;71.99;94665.13;4183097;28;20132;-73
2023/11/30 07:23:51;;;;;;;39.38;30.40;;;;;;;2.90;72.58;94663.19;4192266;28;20083;-70
2023/11/30 07:25:52;;;;;;;36.92;32.25;;;;;;;2.96;71.98;94663.56;4194435;28;20059;-69
2023/11/30 07:27:54;;;;;;;36.63;31.00;;;;;;;2.86;71.89;94678.94;4190140;28;20083;-71
2023/11/30 07:29:56;;;;;;;35.03;30.75;;;;;;;2.90;71.76;94679.53;4192482;28;20406;-71
2023/11/30 07:31:58;;;;;;;35.13;29.95;;;;;;;3.01;71.69;94670.97;4194696;28;20075;-74
2023/11/30 07:33:59;;;;;;;34.45;28.20;;;;;;;3.10;71.70;94659.94;4195947;28;20049;-71
2023/11/30 07:36:01;;;;;;;35.17;29.35;;;;;;;3.16;71.45;94663.81;4196087;28;20052;-71
2023/11/30 07:38:03;;;;;;;36.25;28.67;;;;;;;3.25;71.23;94666.56;4182415;28;20496;-69
2023/11/30 07:40:06;;;;;;;34.08;29.55;;;;;;;3.25;70.91;94658.81;4194002;28;20488;-71
2023/11/30 07:42:08;;;;;;;33.83;28.73;;;;;;;3.07;70.47;94662.75;4193810;28;20049;-72
2023/11/30 07:44:10;;;;;;;32.33;28.67;;;;;;;3.05;71.08;94675.84;4178377;28;20076;-72
2023/11/30 07:46:12;;;;;;;35.95;30.02;;;;;;;3.04;70.97;94674.16;4173013;28;20049;-70
2023/11/30 07:48:14;;;;;;;39.88;32.22;;;;;;;2.89;70.65;94680.47;4184150;28;20473;-71
2023/11/30 07:50:16;;;;;;;38.47;31.95;;;;;;;2.76;71.44;94684.91;4177157;28;20541;-70
2023/11/30 07:52:17;;;;;;;36.72;31.35;;;;;;;2.75;71.63;94671.13;4191902;28;20045;-72
2023/11/30 07:54:19;;;;;;;36.58;32.45;;;;;;;2.82;72.30;94677.53;4177463;28;20529;-72
2023/11/30 07:56:21;;;;;;;36.47;31.60;;;;;;;2.78;71.86;94680.44;4175975;28;20055;-71
2023/11/30 07:58:23;;;;;;;37.88;31.75;;;;;;;2.76;72.18;94683.13;4191443;28;20048;-70
2023/11/30 08:00:25;;;;;;;37.00;31.63;;;;;;;2.81;72.64;94673.25;4175473;28;20469;-72
2023/11/30 08:02:27;;;;;;;35.83;30.58;;;;;;;2.91;72.37;94664.84;4187894;28;20048;-71
2023/11/30 08:04:30;;;;;;;34.88;31.08;;;;;;;2.97;71.71;94662.63;4198863;28;20127;-71
2023/11/30 08:06:32;;;;;;;36.17;30.70;;;;;;;3.08;71.81;94667.00;4195394;28;20124;-71
2023/11/30 08:08:34;;;;;;;38.22;30.40;;;;;;;3.16;71.65;94656.91;4191610;28;20056;-73
2023/11/30 08:10:36;;;;;;;35.85;30.42;;;;;;;3.22;71.50;94656.41;4198998;28;20056;-71
2023/11/30 08:12:38;;;;;;;35.13;29.33;;;;;;;3.26;70.99;94654.44;4199445;28;20052;-72
2023/11/30 08:14:40;;;;;;;35.10;30.25;;;;;;;3.34;71.41;94670.22;4189270;28;20055;-72
2023/11/30 08:16:42;;;;;;;34.70;30.17;;;;;;;3.28;70.80;94681.84;4195759;28;20418;-70
2023/11/30 08:18:44;;;;;;;34.28;30.13;;;;;;;3.34;70.59;94664.22;4181201;28;20052;-71
2023/11/30 08:20:48;;;;;;;33.15;28.85;;;;;;;3.42;70.99;94670.47;4191640;28;20158;-71
2023/11/30 08:22:49;;;;;;;34.25;28.35;;;;;;;3.42;70.73;94664.44;4196208;28;20045;-71
2023/11/30 08:24:51;;;;;;;32.40;28.13;;;;;;;3.41;70.93;94676.59;4191677;28;20083;-70
2023/11/30 08:26:53;;;;;;;32.50;28.08;;;;;;;3.46;70.28;94691.75;4191973;28;20574;-69
2023/11/30 08:28:54;;;;;;;33.92;28.83;;;;;;;3.51;70.11;94681.91;4196794;28;20045;-69
2023/11/30 08:30:56;;;;;;;33.15;28.35;;;;;;;3.49;69.26;94696.72;4182574;28;20083;-71
2023/11/30 08:32:58;;;;;;;32.88;29.23;;;;;;;3.47;69.84;94702.03;4192641;28;20048;-71
2023/11/30 08:35:01;;;;;;;32.15;28.33;;;;;;;3.55;70.55;94692.84;4180816;28;20073;-72
2023/11/30 08:37:04;;;;;;;33.75;29.25;;;;;;;3.55;69.87;94688.50;4196993;28;20122;-70
2023/11/30 08:39:05;;;;;;;32.58;28.67;;;;;;;3.70;69.77;94683.91;4185638;28;20045;-70
2023/11/30 08:41:08;;;;;;;33.58;28.77;;;;;;;3.86;69.47;94696.50;4191916;28;20410;-72
2023/11/30 08:43:10;;;;;;;31.13;27.70;;;;;;;3.95;68.95;94675.06;4188169;28;20056;-71
2023/11/30 08:45:12;;;;;;;34.70;29.02;;;;;;;3.93;68.47;94682.13;4166566;28;20132;-71
2023/11/30 08:47:13;;;;;;;36.00;30.27;;;;;;;3.98;68.60;94689.53;4175666;28;20049;-70
2023/11/30 08:49:15;;;;;;;33.53;29.10;;;;;;;4.12;68.24;94676.34;4197030;28;20044;-71
2023/11/30 08:51:17;;;;;;;35.80;28.92;;;;;;;4.25;68.61;94663.22;4179595;28;20139;-71
2023/11/30 08:53:20;;;;;;;35.42;29.70;;;;;;;4.28;68.06;94669.00;4193963;28;20124;-73
2023/11/30 08:55:24;;;;;;;34.30;29.13;;;;;;;4.31;67.19;94660.16;4178417;28;20049;-72
2023/11/30 08:57:25;;;;;;;37.72;30.85;;;;;;;4.31;68.21;94658.38;4193786;28;20044;-72
2023/11/30 08:59:27;;;;;;;42.65;32.60;;;;;;;4.28;67.26;94657.78;4194816;28;20127;-72
2023/11/30 09:01:29;;;;;;;40.13;32.33;;;;;;;4.31;67.91;94639.41;4197939;28;20060;-74
2023/11/30 09:03:31;;;;;;;40.10;33.95;;;;;;;4.25;67.67;94645.06;4202118;28;20055;-72
2023/11/30 09:05:33;;;;;;;41.72;34.58;;;;;;;4.16;68.06;94646.63;4193419;28;20084;-73
2023/11/30 09:07:36;;;;;;;41.47;33.10;;;;;;;4.16;67.73;94645.81;4189711;28;20480;-72
2023/11/30 09:09:38;;;;;;;40.03;32.20;;;;;;;3.73;67.92;94641.41;4194003;28;20075;-74
2023/11/30 09:11:44;;;;;;;38.70;32.88;;;;;;;3.64;69.44;94656.69;4197333;28;20053;-72
2023/11/30 09:13:47;;;;;;;37.78;31.42;;;;;;;3.43;70.27;94628.09;4164358;28;20493;-72
2023/11/30 09:15:48;;;;;;;42.15;32.45;;;;;;;3.51;70.50;94656.00;4196409;28;20075;-70
2023/11/30 09:17:50;;;;;;;40.42;31.50;;;;;;;3.58;70.20;94646.81;4179622;28;20494;-73
2023/11/30 09:19:52;;;;;;;43.97;33.25;;;;;;;3.65;69.88;94631.63;4179022;28;20083;-71
2023/11/30 09:21:54;;;;;;;33.17;28.98;;;;;;;3.34;69.93;94630.56;4193506;28;20135;-71
2023/11/30 09:23:56;;;;;;;31.95;27.55;;;;;;;3.38;70.48;94637.16;4197068;28;20524;-74
2023/11/30 09:25:57;;;;;;;35.70;29.48;;;;;;;3.52;70.63;94634.31;4196838;28;20086;-72
2023/11/30 09:27:59;;;;;;;35.83;29.95;;;;;;;3.82;69.91;94625.94;4191390;28;20053;-71